Time;durP1;ratioP1;P1;durP2;ratioP2;P2;SDS_P1;SDS_P2;PMS_P1;PMS_P2;Temp;Humidity;BMP_temperature;BMP_pressure;BME280_temperature;BME280_humidity;BME280_pressure;Samples;Min_cycle;Max_cycle;Signal;HPM_P1;HPM_P2
2023/11/26 00:00:13;;;;;;;6.93;2.33;;;;;;;5.01;54.14;101053.13;4922349;29;20131;-78
2023/11/26 00:02:41;;;;;;;5.03;1.90;;;;;;;5.00;54.14;101069.47;4901880;29;20048;-79
2023/11/26 00:05:09;;;;;;;3.97;1.92;;;;;;;5.00;54.08;101074.91;4921542;29;20115;-79
2023/11/26 00:07:37;;;;;;;5.50;2.20;;;;;;;4.99;54.11;101065.91;4925836;29;20071;-77
2023/11/26 00:10:06;;;;;;;5.43;2.10;;;;;;;4.99;54.07;101068.59;4919082;29;20078;-78
2023/11/26 00:12:34;;;;;;;5.38;2.20;;;;;;;4.99;53.89;101074.03;4919374;29;20564;-78
2023/11/26 00:15:05;;;;;;;5.88;2.20;;;;;;;5.01;54.05;101071.22;4917472;29;20048;-78
2023/11/26 00:17:33;;;;;;;4.45;2.10;;;;;;;4.98;53.94;101075.00;4903190;29;20513;-78
2023/11/26 00:20:02;;;;;;;5.80;2.40;;;;;;;4.98;54.13;101075.00;4897259;29;20044;-79
2023/11/26 00:22:30;;;;;;;4.43;1.92;;;;;;;4.99;54.12;101079.47;4916295;29;20044;-77
2023/11/26 00:24:58;;;;;;;6.68;2.10;;;;;;;4.98;54.04;101077.72;4917516;29;20589;-79
2023/11/26 00:27:26;;;;;;;4.65;1.98;;;;;;;4.99;54.08;101076.75;4895364;29;20103;-78
2023/11/26 00:29:55;;;;;;;4.55;2.00;;;;;;;4.99;54.14;101075.88;4913914;29;20063;-78
2023/11/26 00:32:25;;;;;;;5.95;2.00;;;;;;;4.99;54.07;101067.72;4898609;29;20131;-78
2023/11/26 00:34:53;;;;;;;4.55;1.98;;;;;;;4.97;54.13;101070.53;4895203;29;20144;-78
2023/11/26 00:37:21;;;;;;;5.07;1.80;;;;;;;4.98;54.05;101071.41;4898310;29;20568;-77
2023/11/26 00:39:49;;;;;;;8.48;2.15;;;;;;;4.98;54.08;101069.56;4917385;29;20628;-79
2023/11/26 00:42:17;;;;;;;5.47;1.80;;;;;;;4.97;54.23;101070.53;4913065;29;20417;-78
2023/11/26 00:44:45;;;;;;;5.00;2.13;;;;;;;4.97;54.08;101073.25;4897835;29;20044;-78
2023/11/26 00:47:13;;;;;;;9.52;1.95;;;;;;;4.98;54.36;101079.53;4899045;29;20048;-79
2023/11/26 00:49:42;;;;;;;5.40;1.95;;;;;;;4.99;54.29;101079.47;4905183;29;20046;-78
2023/11/26 00:52:10;;;;;;;6.28;2.08;;;;;;;4.98;54.36;101085.84;4918422;29;20527;-78
2023/11/26 00:54:38;;;;;;;4.97;2.10;;;;;;;4.98;54.42;101083.13;4913926;29;20160;-78
2023/11/26 00:57:06;;;;;;;6.40;2.15;;;;;;;4.99;54.35;101081.28;4897734;29;20459;-78
2023/11/26 00:59:34;;;;;;;5.90;2.13;;;;;;;4.99;54.53;101086.72;4917148;29;20123;-78
2023/11/26 01:02:03;;;;;;;6.10;2.15;;;;;;;4.99;54.32;101090.31;4917613;29;20580;-78
2023/11/26 01:04:31;;;;;;;5.65;2.10;;;;;;;5.00;54.07;101092.06;4916336;29;20142;-77
2023/11/26 01:07:01;;;;;;;5.75;2.20;;;;;;;5.02;54.26;101089.25;4901832;29;20044;-77
2023/11/26 01:09:29;;;;;;;5.45;2.17;;;;;;;5.01;54.25;101096.53;4898436;29;20232;-78
2023/11/26 01:11:57;;;;;;;6.68;2.30;;;;;;;5.02;54.39;101100.09;4895697;29;20457;-77
2023/11/26 01:14:25;;;;;;;6.43;2.10;;;;;;;5.03;54.13;101093.72;4918534;29;20039;-78
2023/11/26 01:16:53;;;;;;;5.22;2.58;;;;;;;5.02;54.23;101092.84;4915157;29;20062;-77
2023/11/26 01:19:21;;;;;;;5.20;2.13;;;;;;;5.02;54.34;101091.97;4898166;29;20048;-78
2023/11/26 01:21:49;;;;;;;5.97;2.40;;;;;;;5.02;54.00;101101.00;4918921;29;20532;-78
2023/11/26 01:24:20;;;;;;;6.72;2.25;;;;;;;5.04;54.32;101092.75;4898507;29;20533;-78
2023/11/26 01:26:48;;;;;;;6.10;3.38;;;;;;;5.02;54.30;101090.13;4901005;29;20557;-78
2023/11/26 01:29:16;;;;;;;5.35;2.63;;;;;;;5.02;54.16;101094.69;4896777;29;20111;-74
2023/11/26 01:31:44;;;;;;;4.93;2.42;;;;;;;5.02;54.31;101095.56;4915200;29;20052;-74
2023/11/26 01:34:13;;;;;;;3.97;2.20;;;;;;;5.03;54.30;101088.28;4898100;29;20619;-76
2023/11/26 01:36:41;;;;;;;6.43;2.40;;;;;;;5.03;53.99;101086.47;4898952;29;20483;-76
2023/11/26 01:39:09;;;;;;;6.40;2.35;;;;;;;5.03;54.10;101088.28;4901023;29;20076;-76
2023/11/26 01:41:39;;;;;;;4.95;2.08;;;;;;;5.04;54.15;101092.75;4919610;29;20055;-75
2023/11/26 01:44:07;;;;;;;6.00;2.53;;;;;;;5.02;54.15;101090.13;4902016;29;20051;-75
2023/11/26 01:46:35;;;;;;;7.05;2.33;;;;;;;5.03;53.96;101096.44;4915085;29;20446;-76
2023/11/26 01:49:03;;;;;;;6.40;2.42;;;;;;;5.03;53.93;101101.88;4898342;29;20058;-75
2023/11/26 01:51:33;;;;;;;5.68;2.42;;;;;;;5.03;54.16;101104.56;4913101;29;20108;-76
2023/11/26 01:54:01;;;;;;;7.40;2.45;;;;;;;5.02;53.95;101101.00;4925053;29;20071;-76
2023/11/26 01:56:30;;;;;;;5.60;2.42;;;;;;;5.02;54.13;101110.97;4906396;29;20135;-75
2023/11/26 01:59:00;;;;;;;5.95;2.60;;;;;;;5.03;53.91;101112.72;4915285;29;20355;-75
2023/11/26 02:01:28;;;;;;;5.43;2.47;;;;;;;5.02;53.90;101108.25;4906291;29;20043;-76
2023/11/26 02:03:56;;;;;;;5.63;2.63;;;;;;;5.02;54.09;101119.09;4896909;29;20043;-75
2023/11/26 02:06:25;;;;;;;6.28;2.50;;;;;;;5.01;53.94;101110.09;4919054;29;20140;-75
2023/11/26 02:08:53;;;;;;;6.43;2.58;;;;;;;4.99;53.85;101120.16;4911701;29;20147;-76
2023/11/26 02:11:20;;;;;;;7.53;2.80;;;;;;;4.99;53.92;101116.56;4921209;29;20076;-76
2023/11/26 02:13:49;;;;;;;7.43;2.38;;;;;;;4.98;53.68;101118.41;4900820;29;20135;-76
2023/11/26 02:16:19;;;;;;;6.10;2.47;;;;;;;4.98;53.86;101117.53;4918181;29;20047;-76
2023/11/26 02:18:47;;;;;;;5.75;2.50;;;;;;;4.95;53.70;101115.88;4902499;29;20069;-76
2023/11/26 02:21:14;;;;;;;5.88;2.47;;;;;;;4.95;53.82;101117.72;4915669;29;20131;-76
2023/11/26 02:23:46;;;;;;;4.85;2.25;;;;;;;4.95;53.99;101117.72;4897081;29;20051;-76
2023/11/26 02:26:15;;;;;;;6.38;2.50;;;;;;;4.95;53.80;101123.16;4918358;29;20413;-76
2023/11/26 02:28:43;;;;;;;6.25;2.53;;;;;;;4.92;53.84;101122.34;4918966;29;20082;-76
2023/11/26 02:31:12;;;;;;;6.50;2.65;;;;;;;4.91;53.95;101120.59;4896396;29;20068;-76
2023/11/26 02:33:40;;;;;;;5.90;2.58;;;;;;;4.92;53.83;101116.94;4916707;29;20418;-76
2023/11/26 02:36:25;;;;;;;5.50;2.40;;;;;;;4.89;54.20;101124.38;4904787;29;20040;-75
2023/11/26 02:38:55;;;;;;;7.40;2.55;;;;;;;4.91;53.98;101120.59;4914805;29;20047;-76
2023/11/26 02:41:25;;;;;;;5.68;2.47;;;;;;;4.93;53.94;101131.38;4922027;29;20048;-76
2023/11/26 02:43:53;;;;;;;6.18;2.50;;;;;;;4.92;53.80;101129.63;4917403;29;20418;-75
2023/11/26 02:46:22;;;;;;;4.85;2.38;;;;;;;4.90;53.91;101124.28;4895319;29;20127;-75
2023/11/26 02:48:50;;;;;;;5.53;2.42;;;;;;;4.90;53.69;101127.00;4914206;29;20544;-76
2023/11/26 02:51:19;;;;;;;6.43;2.30;;;;;;;4.92;53.73;101129.63;4919172;29;20080;-73
2023/11/26 02:53:47;;;;;;;6.60;2.42;;;;;;;4.89;53.61;101125.25;4895127;29;20048;-76
2023/11/26 02:56:15;;;;;;;6.03;2.45;;;;;;;4.89;53.70;101127.06;4922146;29;20143;-76
2023/11/26 02:58:45;;;;;;;6.75;2.50;;;;;;;4.88;53.52;101128.06;4895278;29;20066;-76
2023/11/26 03:01:19;;;;;;;4.45;2.28;;;;;;;4.88;53.66;101128.91;4898196;29;20063;-76
2023/11/26 03:03:47;;;;;;;7.80;3.08;;;;;;;4.85;53.71;101120.09;4900375;29;20039;-76
2023/11/26 03:06:17;;;;;;;8.18;2.72;;;;;;;4.84;53.72;101123.78;4913249;29;20540;-76
2023/11/26 03:08:45;;;;;;;6.43;2.67;;;;;;;4.83;53.61;101135.59;4889438;29;20099;-76
2023/11/26 03:14:00;;;;;;;7.53;2.58;;;;;;;4.81;53.58;101140.22;4908240;29;20048;-76
2023/11/26 03:16:28;;;;;;;5.75;2.80;;;;;;;4.80;53.47;101143.94;4911242;29;20050;-75
2023/11/26 03:18:56;;;;;;;5.65;2.42;;;;;;;4.79;53.71;101139.47;4913514;29;20070;-76
2023/11/26 03:21:28;;;;;;;5.95;2.30;;;;;;;4.77;53.62;101131.41;4899457;29;20078;-76
2023/11/26 03:23:56;;;;;;;;;;;;;;;4.55;54.21;101145.34;4917692;29;20124;-76
2023/11/26 03:26:25;;;;;;;6.82;2.45;;;;;;;4.73;53.67;101145.22;4900659;29;19923;-75
2023/11/26 03:28:54;;;;;;;5.60;2.47;;;;;;;4.75;53.66;101144.19;4896157;29;20060;-75
2023/11/26 03:31:24;;;;;;;5.05;2.65;;;;;;;4.77;53.61;101133.25;4897756;29;20123;-76
2023/11/26 03:33:52;;;;;;;5.53;2.35;;;;;;;4.76;53.61;101143.22;4913114;29;20052;-76
2023/11/26 03:36:21;;;;;;;5.55;2.40;;;;;;;4.74;53.57;101145.13;4899006;29;20036;-76
2023/11/26 03:38:49;;;;;;;6.53;2.67;;;;;;;4.74;53.43;101147.84;4910184;29;20103;-75
2023/11/26 03:41:18;;;;;;;5.43;2.67;;;;;;;4.74;53.34;101152.41;4897237;29;20044;-76
2023/11/26 03:43:47;;;;;;;5.65;2.72;;;;;;;4.73;53.15;101147.94;4898843;29;20138;-75
2023/11/26 03:46:15;;;;;;;5.57;2.50;;;;;;;4.73;53.23;101147.94;4899647;29;20040;-76
2023/11/26 03:48:49;;;;;;;7.20;2.80;;;;;;;4.73;53.24;101145.22;4913970;29;20070;-75
2023/11/26 03:51:20;;;;;;;6.07;2.93;;;;;;;4.69;53.25;101151.81;4917861;29;20120;-76
2023/11/26 03:53:49;;;;;;;7.20;3.17;;;;;;;4.70;53.52;101149.00;4898238;29;20051;-76
2023/11/26 03:56:17;;;;;;;8.30;2.85;;;;;;;4.69;53.12;101147.25;4900546;29;20051;-76
2023/11/26 03:58:45;;;;;;;7.47;3.08;;;;;;;4.69;53.33;101155.41;4911326;29;20048;-76
2023/11/26 04:01:11;;;;;;;6.95;3.17;;;;;;;4.68;53.05;101155.47;4914853;29;20589;-76
2023/11/26 04:03:40;;;;;;;6.60;3.25;;;;;;;4.66;53.22;101146.53;4914767;29;20163;-76
2023/11/26 04:06:09;;;;;;;5.80;3.17;;;;;;;4.66;53.08;101143.84;4905921;29;20047;-76
2023/11/26 04:08:37;;;;;;;5.00;2.83;;;;;;;4.65;53.20;101155.66;4911211;29;20422;-74
2023/11/26 04:11:06;;;;;;;5.95;3.63;;;;;;;4.63;53.08;101141.31;4921426;29;20409;-76
2023/11/26 04:13:33;;;;;;;7.60;3.40;;;;;;;4.62;53.23;101139.56;4892925;29;20529;-75
2023/11/26 04:16:05;;;;;;;7.80;3.88;;;;;;;4.61;53.14;101148.66;4894930;29;20151;-74
2023/11/26 04:18:34;;;;;;;7.45;3.50;;;;;;;4.60;53.33;101150.50;4894347;29;20071;-74
2023/11/26 04:21:02;;;;;;;6.78;3.72;;;;;;;4.60;53.25;101155.03;4910321;29;20056;-74
2023/11/26 04:23:32;;;;;;;6.82;3.75;;;;;;;4.60;52.93;101158.63;4918803;29;20052;-74
2023/11/26 04:26:01;;;;;;;8.90;3.93;;;;;;;4.59;53.05;101161.44;4918589;29;20048;-74
2023/11/26 04:28:30;;;;;;;5.90;3.35;;;;;;;4.57;53.04;101155.22;4913109;29;20052;-74
2023/11/26 04:30:58;;;;;;;6.55;4.05;;;;;;;4.57;53.14;101156.09;4894492;29;20380;-74
2023/11/26 04:33:26;;;;;;;6.88;3.90;;;;;;;4.56;53.04;101151.63;4901191;29;20581;-76
2023/11/26 04:35:54;;;;;;;7.57;3.75;;;;;;;4.55;53.20;101155.31;4919234;29;20051;-76
2023/11/26 04:38:21;;;;;;;7.53;3.85;;;;;;;4.54;53.08;101159.00;4911752;29;20436;-76
2023/11/26 04:40:51;;;;;;;6.65;4.03;;;;;;;4.54;53.25;101164.41;4916358;29;20044;-73
2023/11/26 04:43:19;;;;;;;7.60;4.13;;;;;;;4.52;53.18;101166.34;4902164;29;20048;-76
2023/11/26 04:45:47;;;;;;;6.32;3.97;;;;;;;4.50;53.25;101161.00;4924493;29;20126;-76
2023/11/26 04:48:15;;;;;;;8.13;4.03;;;;;;;4.49;53.42;101152.94;4898576;29;20055;-76
2023/11/26 04:50:44;;;;;;;7.18;4.05;;;;;;;4.46;53.48;101150.44;4922176;29;20048;-76
2023/11/26 04:53:12;;;;;;;7.65;3.92;;;;;;;4.47;53.44;101154.91;4914021;29;20122;-76
2023/11/26 04:55:40;;;;;;;8.10;3.83;;;;;;;4.45;53.50;101146.84;4917280;29;20051;-76
2023/11/26 04:58:09;;;;;;;6.05;3.85;;;;;;;4.46;53.43;101154.03;4915614;29;20040;-75
2023/11/26 05:00:37;;;;;;;5.90;3.40;;;;;;;4.45;53.43;101154.97;4919129;29;20056;-76
2023/11/26 05:03:06;;;;;;;7.75;3.67;;;;;;;4.46;53.41;101161.28;4918849;29;20561;-76
2023/11/26 05:05:34;;;;;;;6.97;3.80;;;;;;;4.45;53.59;101154.97;4917358;29;20058;-75
2023/11/26 05:08:02;;;;;;;7.38;4.15;;;;;;;4.46;53.65;101162.16;4891869;29;20311;-76
2023/11/26 05:10:30;;;;;;;5.85;3.80;;;;;;;4.47;53.60;101166.59;4918418;29;20046;-76
2023/11/26 05:12:58;;;;;;;8.85;4.10;;;;;;;4.48;53.69;101164.75;4902558;29;20405;-75
2023/11/26 05:15:27;;;;;;;7.30;3.83;;;;;;;4.49;53.65;101170.09;4914123;29;20082;-76
2023/11/26 05:17:55;;;;;;;8.98;3.60;;;;;;;4.49;53.65;101164.66;4920891;29;20142;-75
2023/11/26 05:20:23;;;;;;;7.32;4.40;;;;;;;4.49;53.76;101167.38;4919369;29;20455;-76
2023/11/26 05:22:53;;;;;;;8.88;4.13;;;;;;;4.50;53.73;101165.53;4916612;29;20108;-76
2023/11/26 05:25:21;;;;;;;7.85;4.15;;;;;;;4.49;53.72;101167.38;4919405;29;20525;-76
2023/11/26 05:27:49;;;;;;;8.35;3.85;;;;;;;4.49;53.68;101163.78;4913150;29;20139;-75
2023/11/26 05:30:17;;;;;;;6.93;4.63;;;;;;;4.48;53.57;101162.91;4919290;29;20113;-76
2023/11/26 05:32:46;;;;;;;7.60;3.97;;;;;;;4.48;53.80;101168.34;4924076;29;20178;-76
2023/11/26 05:35:14;;;;;;;5.78;4.07;;;;;;;4.47;53.57;101173.88;4916238;29;20044;-76
2023/11/26 05:37:43;;;;;;;8.13;4.55;;;;;;;4.46;53.77;101170.28;4904950;29;20055;-76
2023/11/26 05:40:13;;;;;;;6.47;4.13;;;;;;;4.46;53.59;101173.00;4918801;29;20489;-76
2023/11/26 05:42:40;;;;;;;8.40;4.50;;;;;;;4.44;53.68;101171.31;4914370;29;20062;-75
2023/11/26 05:45:09;;;;;;;6.70;4.22;;;;;;;4.44;53.70;101171.31;4921646;29;20054;-76
2023/11/26 05:47:38;;;;;;;6.82;4.22;;;;;;;4.42;53.71;101179.53;4922903;29;20055;-76
2023/11/26 05:50:08;;;;;;;6.70;3.85;;;;;;;4.44;53.89;101171.31;4920552;29;20040;-76
2023/11/26 05:52:36;;;;;;;6.65;3.92;;;;;;;4.42;53.80;101175.94;4912207;29;20070;-76
2023/11/26 05:55:06;;;;;;;7.43;4.10;;;;;;;4.42;53.85;101176.81;4919097;29;20096;-75
2023/11/26 05:57:33;;;;;;;7.72;3.67;;;;;;;4.41;54.20;101177.78;4898059;29;20092;-76
2023/11/26 06:00:03;;;;;;;10.18;4.32;;;;;;;4.42;54.13;101179.53;4900978;29;20048;-76
2023/11/26 06:02:38;;;;;;;9.52;4.18;;;;;;;4.43;54.07;101180.41;4917815;29;20303;-75
2023/11/26 06:05:08;;;;;;;9.13;4.50;;;;;;;4.47;54.16;101187.41;4918443;29;20051;-76
2023/11/26 06:07:36;;;;;;;8.30;4.10;;;;;;;4.45;54.13;101183.91;4916770;29;20425;-76
2023/11/26 06:10:05;;;;;;;6.35;3.80;;;;;;;4.47;54.21;101180.13;4921710;29;20108;-76
2023/11/26 06:12:33;;;;;;;9.02;4.30;;;;;;;4.47;54.05;101177.41;4913849;29;20076;-75
2023/11/26 06:15:01;;;;;;;9.70;4.60;;;;;;;4.49;54.13;101178.22;4920326;29;20051;-75
2023/11/26 06:17:30;;;;;;;7.50;4.60;;;;;;;4.50;53.86;101181.81;4924134;29;20052;-75
2023/11/26 06:19:58;;;;;;;8.40;4.85;;;;;;;4.50;54.07;101179.97;4914616;29;20052;-75
2023/11/26 06:22:27;;;;;;;7.15;4.60;;;;;;;4.52;54.09;101178.06;4920498;29;20054;-76
2023/11/26 06:24:55;;;;;;;9.73;4.80;;;;;;;4.52;53.98;101179.88;4917512;29;20422;-75
2023/11/26 06:27:23;;;;;;;8.68;5.07;;;;;;;4.52;53.61;101171.75;4899493;29;20131;-76
2023/11/26 06:29:51;;;;;;;11.43;5.20;;;;;;;4.52;53.98;101180.75;4919260;29;20059;-76
2023/11/26 06:32:19;;;;;;;11.13;5.90;;;;;;;4.52;54.11;101175.34;4920519;29;20391;-76
2023/11/26 06:34:47;;;;;;;9.00;5.18;;;;;;;4.52;53.93;101180.75;4922960;29;20110;-76
2023/11/26 06:37:15;;;;;;;8.63;4.90;;;;;;;4.53;53.99;101174.38;4894737;29;20131;-75
2023/11/26 06:39:44;;;;;;;11.10;5.35;;;;;;;4.55;53.93;101175.16;4920402;29;20517;-76
2023/11/26 06:42:16;;;;;;;9.60;5.47;;;;;;;4.52;54.14;101172.63;4923698;29;20063;-75
2023/11/26 06:44:44;;;;;;;9.98;5.40;;;;;;;4.54;54.09;101164.41;4919111;29;20118;-76
2023/11/26 06:47:11;;;;;;;10.15;5.70;;;;;;;4.55;54.16;101160.75;4901251;29;20060;-76
2023/11/26 06:49:39;;;;;;;8.10;5.47;;;;;;;4.55;54.24;101163.47;4897279;29;20509;-75
2023/11/26 06:52:07;;;;;;;10.75;5.88;;;;;;;4.56;54.09;101173.31;4918673;29;20044;-76
2023/11/26 06:54:35;;;;;;;9.48;6.20;;;;;;;4.57;54.29;101171.47;4917113;29;20048;-76
2023/11/26 06:57:05;;;;;;;9.95;5.80;;;;;;;4.58;54.25;101171.41;4917644;29;20096;-75
2023/11/26 06:59:33;;;;;;;9.23;5.80;;;;;;;4.59;54.16;101177.69;4912000;29;20123;-76
2023/11/26 07:02:08;;;;;;;8.23;5.43;;;;;;;4.57;54.13;101177.78;4915983;29;20079;-76
2023/11/26 07:04:36;;;;;;;9.52;5.97;;;;;;;4.59;54.22;101175.84;4917486;29;20047;-75
2023/11/26 07:07:04;;;;;;;9.55;5.93;;;;;;;4.60;54.16;101171.31;4914287;29;20071;-76
2023/11/26 07:09:33;;;;;;;11.77;6.07;;;;;;;4.61;54.21;101179.34;4911266;29;20064;-76
2023/11/26 07:12:01;;;;;;;10.15;6.45;;;;;;;4.62;54.04;101177.53;4918716;29;20433;-76
2023/11/26 07:14:30;;;;;;;10.07;6.07;;;;;;;4.62;54.07;101170.28;4912558;29;20079;-76
2023/11/26 07:16:58;;;;;;;11.52;6.65;;;;;;;4.62;54.27;101167.56;4922974;29;20075;-76
2023/11/26 07:19:26;;;;;;;12.07;6.82;;;;;;;4.62;54.41;101162.13;4900044;29;20577;-76
2023/11/26 07:21:54;;;;;;;12.07;7.10;;;;;;;4.63;54.14;101165.72;4899948;29;20532;-76
2023/11/26 07:24:21;;;;;;;13.48;7.63;;;;;;;4.63;54.10;101176.56;4923265;29;20054;-75
2023/11/26 07:26:49;;;;;;;13.60;7.10;;;;;;;4.63;54.10;101169.31;4919075;29;20490;-76
2023/11/26 07:29:17;;;;;;;14.55;7.63;;;;;;;4.63;54.12;101163.00;4930208;23;20157;-77
2023/11/26 07:31:48;;;;;;;13.35;8.15;;;;;;;4.64;54.10;101167.44;4971816;28;20049;-77
2023/11/26 07:34:16;;;;;;;15.48;7.90;;;;;;;4.63;54.19;101165.72;4969251;28;20058;-77
2023/11/26 07:36:50;;;;;;;13.32;7.88;;;;;;;4.63;54.26;101166.59;4967939;28;20062;-76
2023/11/26 07:39:18;;;;;;;14.13;7.93;;;;;;;4.63;54.25;101165.72;4949937;28;20051;-76
2023/11/26 07:41:46;;;;;;;14.18;8.30;;;;;;;4.62;54.15;101164.84;4950438;28;20042;-77
2023/11/26 07:44:14;;;;;;;16.02;8.15;;;;;;;4.65;54.32;101171.91;4951118;28;20058;-77
2023/11/26 07:46:42;;;;;;;14.90;8.70;;;;;;;4.63;54.25;101172.03;4952240;28;20142;-76
2023/11/26 07:49:12;;;;;;;16.17;8.80;;;;;;;4.65;54.34;101180.91;4951632;28;20106;-77
2023/11/26 07:51:39;;;;;;;14.77;7.85;;;;;;;4.65;54.50;101174.63;4935701;28;20159;-76
2023/11/26 07:54:08;;;;;;;14.75;8.30;;;;;;;4.66;54.50;101179.09;4951185;28;20420;-77
2023/11/26 07:56:49;;;;;;;15.35;8.98;;;;;;;4.66;54.53;101189.94;4952101;28;20051;-76
2023/11/26 07:59:17;;;;;;;15.88;8.68;;;;;;;4.67;54.44;101188.97;4953297;28;20055;-75
2023/11/26 08:01:49;;;;;;;18.00;8.40;;;;;;;4.70;54.38;101192.38;4934876;28;20051;-77
2023/11/26 08:04:19;;;;;;;16.57;8.87;;;;;;;4.68;54.44;101194.31;4951889;28;20043;-77
2023/11/26 08:06:48;;;;;;;18.15;9.15;;;;;;;4.69;54.50;101179.78;4945743;28;20130;-78
2023/11/26 08:09:17;;;;;;;14.23;9.15;;;;;;;4.70;54.51;101186.97;4941225;28;20142;-76
2023/11/26 08:11:46;;;;;;;14.63;8.68;;;;;;;4.72;54.52;101190.44;4934872;29;20372;-76
2023/11/26 08:14:14;;;;;;;16.30;9.38;;;;;;;4.71;54.57;101186.00;4951113;28;20073;-76
2023/11/26 08:16:43;;;;;;;18.60;9.45;;;;;;;4.73;54.61;101184.06;4950123;28;20051;-76
2023/11/26 08:19:16;;;;;;;15.50;8.88;;;;;;;4.74;54.67;101182.22;4951061;28;20042;-77
2023/11/26 08:21:45;;;;;;;13.77;8.27;;;;;;;4.73;54.73;101180.47;4940960;28;20636;-77
2023/11/26 08:24:17;;;;;;;14.75;8.45;;;;;;;4.75;54.74;101175.84;4947577;28;20315;-76
2023/11/26 08:26:47;;;;;;;16.67;8.52;;;;;;;4.74;54.72;101183.09;4952110;28;20097;-77
2023/11/26 08:29:18;;;;;;;15.95;8.77;;;;;;;4.76;54.92;101178.47;4936785;28;20365;-76
2023/11/26 08:31:47;;;;;;;17.23;9.23;;;;;;;4.78;54.77;101172.97;4938124;29;20067;-77
2023/11/26 08:34:16;;;;;;;17.05;9.23;;;;;;;4.79;54.80;101172.88;4954023;28;20138;-77
2023/11/26 08:36:46;;;;;;;14.65;8.45;;;;;;;4.81;54.81;101170.94;4937070;28;20058;-76
2023/11/26 08:39:18;;;;;;;15.02;8.30;;;;;;;4.83;54.95;101173.56;4955995;28;20043;-76
2023/11/26 08:41:46;;;;;;;13.73;8.45;;;;;;;4.84;55.00;101175.31;4952857;28;20110;-77
2023/11/26 08:44:15;;;;;;;14.32;8.23;;;;;;;4.85;54.86;101172.50;4953844;28;20035;-77
2023/11/26 08:46:43;;;;;;;16.02;8.43;;;;;;;4.86;54.93;101170.66;4958947;28;20047;-77
2023/11/26 08:49:16;;;;;;;15.80;8.65;;;;;;;4.88;55.12;101180.44;4952349;28;20062;-77
2023/11/26 08:51:46;;;;;;;15.38;8.32;;;;;;;4.90;55.16;101177.66;4952474;28;20504;-77
2023/11/26 08:54:14;;;;;;;15.13;8.45;;;;;;;4.90;54.97;101174.94;4946550;28;20051;-76
2023/11/26 08:56:42;;;;;;;14.25;8.27;;;;;;;4.93;55.13;101177.47;4950804;28;20409;-76
2023/11/26 08:59:10;;;;;;;16.80;8.60;;;;;;;4.93;55.28;101172.94;4946283;28;20515;-77
2023/11/26 09:01:38;;;;;;;12.80;8.07;;;;;;;4.95;55.19;101164.72;4955742;28;20047;-76
2023/11/26 09:04:08;;;;;;;13.85;7.68;;;;;;;4.98;55.27;101163.63;4950655;28;20051;-76
2023/11/26 09:06:36;;;;;;;15.05;7.95;;;;;;;4.99;55.31;101168.97;4970197;28;20063;-76
2023/11/26 09:09:07;;;;;;;15.50;8.13;;;;;;;5.01;55.16;101160.75;4949348;28;20081;-76
2023/11/26 09:11:34;;;;;;;14.32;8.20;;;;;;;5.03;55.27;101166.97;4964164;28;20047;-79
2023/11/26 09:14:02;;;;;;;13.57;7.35;;;;;;;5.04;55.35;101163.28;4951812;28;20047;-77
2023/11/26 09:16:36;;;;;;;14.45;8.32;;;;;;;5.05;55.36;101156.88;4952082;28;20058;-77
2023/11/26 09:19:04;;;;;;;16.65;8.80;;;;;;;5.07;55.15;101169.38;4949740;28;20053;-75
2023/11/26 09:21:32;;;;;;;11.55;7.40;;;;;;;5.08;55.24;101164.84;4935495;28;20158;-75
2023/11/26 09:24:00;;;;;;;12.82;7.85;;;;;;;5.11;55.08;101153.81;4936999;29;20051;-76
2023/11/26 09:26:30;;;;;;;14.35;8.75;;;;;;;5.13;55.11;101160.03;4949743;28;20061;-76
2023/11/26 09:28:58;;;;;;;15.38;7.93;;;;;;;5.13;55.29;101160.03;4933747;28;20499;-75
2023/11/26 09:31:27;;;;;;;14.73;8.45;;;;;;;5.13;55.30;101151.88;4950755;28;20070;-76
2023/11/26 09:33:55;;;;;;;15.82;8.52;;;;;;;5.15;55.17;101147.22;4952743;28;20045;-77
2023/11/26 09:36:23;;;;;;;15.45;7.88;;;;;;;5.14;55.24;101146.34;4946643;28;20039;-76
2023/11/26 09:38:51;;;;;;;15.82;8.55;;;;;;;5.16;55.19;101152.56;4948322;28;20411;-76
2023/11/26 09:41:20;;;;;;;16.80;8.73;;;;;;;5.17;55.34;101148.91;4948870;28;20107;-76
2023/11/26 09:43:49;;;;;;;15.60;8.65;;;;;;;5.20;55.57;101159.59;4935313;28;20401;-76
2023/11/26 09:46:20;;;;;;;15.48;9.27;;;;;;;5.21;55.58;101157.75;4950549;28;20039;-76
2023/11/26 09:48:48;;;;;;;15.95;8.35;;;;;;;5.22;55.66;101165.78;4941389;28;20047;-76
2023/11/26 09:51:23;;;;;;;15.98;8.55;;;;;;;5.25;55.60;101164.72;4935761;29;20071;-76
2023/11/26 09:53:52;;;;;;;14.65;8.05;;;;;;;5.23;55.46;101167.53;4945378;28;20040;-76
2023/11/26 09:56:20;;;;;;;16.90;9.13;;;;;;;5.26;55.55;101167.34;4937563;28;20057;-76
2023/11/26 09:58:49;;;;;;;15.27;8.57;;;;;;;5.28;55.54;101162.72;4947411;28;20043;-75
2023/11/26 10:01:17;;;;;;;15.57;8.43;;;;;;;5.28;55.62;101160.00;4953956;28;20043;-76
2023/11/26 10:03:55;;;;;;;17.35;8.25;;;;;;;5.33;55.95;101162.44;4930768;29;20372;-75
2023/11/26 10:06:23;;;;;;;15.68;8.88;;;;;;;5.32;55.59;101162.50;4948158;28;20058;-76
2023/11/26 10:08:52;;;;;;;16.90;8.75;;;;;;;5.33;55.58;101153.41;4942940;28;20592;-76
2023/11/26 10:11:21;;;;;;;16.60;8.63;;;;;;;5.37;55.75;101155.84;4946647;28;20053;-76
2023/11/26 10:13:51;;;;;;;12.05;7.63;;;;;;;5.40;55.89;101155.66;4945247;28;20079;-75
2023/11/26 10:16:32;;;;;;;13.13;7.68;;;;;;;5.44;56.11;101153.63;4952707;28;20138;-75
2023/11/26 10:19:02;;;;;;;13.77;8.13;;;;;;;5.43;55.97;101150.03;4946161;28;20047;-75
2023/11/26 10:21:31;;;;;;;16.13;7.70;;;;;;;5.45;55.88;101148.13;4945732;28;20102;-74
2023/11/26 10:24:00;;;;;;;15.98;8.15;;;;;;;5.48;55.76;101139.75;4943722;28;20742;-77
2023/11/26 10:26:29;;;;;;;14.68;7.68;;;;;;;5.52;55.92;101143.19;4951526;28;20047;-76
2023/11/26 10:29:02;;;;;;;14.25;8.05;;;;;;;5.56;56.16;101140.16;4949428;28;20051;-75
2023/11/26 10:31:30;;;;;;;14.00;8.07;;;;;;;5.56;56.01;101142.88;4948849;28;20045;-77
2023/11/26 10:34:09;;;;;;;13.38;7.90;;;;;;;5.61;56.12;101145.31;4948488;28;20532;-77
2023/11/26 10:36:37;;;;;;;14.48;8.07;;;;;;;5.59;55.87;101134.56;4951049;28;20047;-77
2023/11/26 10:39:09;;;;;;;11.65;7.25;;;;;;;5.63;55.63;101136.09;4947694;29;20069;-78
2023/11/26 10:41:37;;;;;;;12.38;7.53;;;;;;;5.64;56.00;101137.84;4939089;29;20054;-77
2023/11/26 10:44:08;;;;;;;10.82;7.35;;;;;;;5.67;56.08;101137.66;4950762;28;20081;-77
2023/11/26 10:46:37;;;;;;;13.35;8.27;;;;;;;5.69;56.15;101140.28;4963272;28;20099;-77
2023/11/26 10:49:13;;;;;;;11.70;7.30;;;;;;;5.73;55.96;101128.25;4946542;28;20075;-77
2023/11/26 10:51:46;;;;;;;11.55;6.72;;;;;;;5.75;56.16;101129.03;4949378;28;20334;-77
2023/11/26 10:54:21;;;;;;;11.80;7.38;;;;;;;5.78;56.09;101131.56;4946656;28;20051;-77
2023/11/26 10:56:53;;;;;;;13.52;7.22;;;;;;;5.78;56.25;101128.84;4949982;28;20050;-77
2023/11/26 10:59:23;;;;;;;12.80;7.35;;;;;;;5.80;55.93;101118.72;4945680;29;20031;-77
2023/11/26 11:01:52;;;;;;;11.65;7.20;;;;;;;5.84;55.86;101127.56;4936693;29;20102;-78
2023/11/26 11:04:22;;;;;;;11.02;6.95;;;;;;;5.86;56.04;101126.50;4929159;29;20134;-77
2023/11/26 11:06:50;;;;;;;12.95;7.75;;;;;;;5.88;55.91;101118.25;4945975;28;20509;-77
2023/11/26 11:09:24;;;;;;;11.77;6.78;;;;;;;5.92;56.04;101126.13;4943858;28;20524;-77
2023/11/26 11:11:59;;;;;;;16.75;7.65;;;;;;;5.95;56.14;101116.91;4937536;29;20078;-77
2023/11/26 11:14:30;;;;;;;13.85;7.63;;;;;;;5.95;56.14;101123.19;4947513;29;20412;-79
2023/11/26 11:16:58;;;;;;;14.35;7.30;;;;;;;5.96;55.95;101124.06;4947591;28;20158;-76
2023/11/26 11:19:49;;;;;;;14.63;7.05;;;;;;;5.98;55.99;101120.28;4948759;28;20523;-76
2023/11/26 11:22:18;;;;;;;12.50;6.53;;;;;;;5.97;55.86;101113.09;4948031;28;20508;-78
2023/11/26 11:24:46;;;;;;;12.18;7.55;;;;;;;5.99;55.77;101111.16;4948947;28;20043;-77
2023/11/26 11:27:14;;;;;;;10.93;6.80;;;;;;;6.02;56.12;101119.13;4948666;28;20138;-77
2023/11/26 11:29:43;;;;;;;13.95;7.20;;;;;;;6.05;55.76;101116.19;4947422;28;20484;-77
2023/11/26 11:32:11;;;;;;;12.02;7.22;;;;;;;6.04;55.94;101114.44;4947848;28;20047;-77
2023/11/26 11:34:39;;;;;;;12.65;7.55;;;;;;;6.05;56.07;101110.75;4949486;29;20039;-76
2023/11/26 11:37:08;;;;;;;12.15;7.07;;;;;;;6.06;55.91;101119.78;4938951;29;20046;-76
2023/11/26 11:39:46;;;;;;;11.95;7.57;;;;;;;6.10;56.06;101115.03;4949685;28;20051;-77